Time,TemperatureF,DewpointF,PressureIn,WindDirection,WindDirectionDegrees,WindSpeedMPH,WindSpeedGustMPH,Humidity,HourlyPrecipIn,Conditions,Clouds,dailyrainin,SolarRadiationWatts/m^2,SoftwareType,DateUTC
2013-08-22 00:01:00,81.3,68.4,30.09,SE,138,4.6,4.6,65,0.00,CLR,,0.00,1.0,WeatherDisplay:10.37,2013-08-22 05:01:00,
2013-08-22 00:06:00,81.2,68.3,30.09,SE,146,4.8,4.8,65,0.00,CLR,,0.00,2.0,WeatherDisplay:10.37,2013-08-22 05:06:00,
2013-08-22 00:11:00,81.2,68.3,30.09,SE,133,4.6,4.6,65,0.00,CLR,,0.00,1.0,WeatherDisplay:10.37,2013-08-22 05:11:00,
2013-08-22 00:16:00,81.1,68.7,30.10,SE,144,5.1,5.1,66,0.00,CLR,,0.00,1.0,WeatherDisplay:10.37,2013-08-22 05:16:00,
2013-08-22 00:21:00,81.0,68.1,30.09,SE,146,5.8,5.8,65,0.00,CLR,,0.00,1.0,WeatherDisplay:10.37,2013-08-22 05:21:00,
2013-08-22 00:26:00,81.0,68.6,30.09,SSE,151,6.9,6.9,66,0.00,CLR,,0.00,1.0,WeatherDisplay:10.37,2013-08-22 05:26:00,
2013-08-22 00:31:00,81.0,68.1,30.09,SSE,148,5.8,5.8,65,0.00,CLR,,0.00,1.0,WeatherDisplay:10.37,2013-08-22 05:31:00,
2013-08-22 00:36:00,81.1,68.2,30.09,SE,146,5.1,5.1,65,0.00,CLR,,0.00,1.0,WeatherDisplay:10.37,2013-08-22 05:36:00,
2013-08-22 00:41:00,81.1,68.2,30.09,SSE,151,5.1,5.1,65,0.00,CLR,,0.00,1.0,WeatherDisplay:10.37,2013-08-22 05:41:00,
2013-08-22 00:46:00,81.2,68.3,30.09,SSE,152,4.6,4.6,65,0.00,CLR,,0.00,1.0,WeatherDisplay:10.37,2013-08-22 05:46:00,
2013-08-22 00:51:00,81.2,68.3,30.09,SSE,151,4.6,4.6,65,0.00,CLR,,0.00,1.0,WeatherDisplay:10.37,2013-08-22 05:51:00,
2013-08-22 00:56:00,81.2,67.9,30.09,SSE,155,4.6,4.6,64,0.00,CLR,,0.00,1.0,WeatherDisplay:10.37,2013-08-22 05:56:00,
2013-08-22 01:01:00,81.2,67.9,30.09,SSE,156,3.5,3.5,64,0.00,CLR,,0.00,1.0,WeatherDisplay:10.37,2013-08-22 06:01:00,
2013-08-22 01:06:00,81.3,68.0,30.08,SSE,155,5.8,5.8,64,0.00,CLR,,0.00,1.0,WeatherDisplay:10.37,2013-08-22 06:06:00,
2013-08-22 01:11:00,81.4,68.1,30.08,SSE,150,5.8,5.8,64,0.00,CLR,,0.00,1.0,WeatherDisplay:10.37,2013-08-22 06:11:00,
2013-08-22 01:16:00,81.5,67.7,30.08,SE,146,4.8,4.8,63,0.00,CLR,,0.00,1.0,WeatherDisplay:10.37,2013-08-22 06:16:00,
2013-08-22 01:21:00,81.5,67.7,30.08,SSE,148,6.9,6.9,63,0.00,CLR,,0.00,1.0,WeatherDisplay:10.37,2013-08-22 06:21:00,
2013-08-22 01:26:00,81.4,68.1,30.08,SSE,151,6.0,6.0,64,0.00,CLR,,0.00,1.0,WeatherDisplay:10.37,2013-08-22 06:26:00,
2013-08-22 01:31:00,81.4,68.1,30.08,SSE,151,5.8,5.8,64,0.00,CLR,,0.00,1.0,WeatherDisplay:10.37,2013-08-22 06:31:00,
2013-08-22 01:36:00,81.2,68.3,30.08,SSE,152,4.6,4.6,65,0.00,CLR,,0.00,1.0,WeatherDisplay:10.37,2013-08-22 06:36:00,
2013-08-22 01:41:00,81.1,68.2,30.08,SSE,147,5.4,5.4,65,0.00,CLR,,0.00,1.0,WeatherDisplay:10.37,2013-08-22 06:41:00,
2013-08-22 01:46:00,81.0,68.1,30.08,SE,146,5.8,5.8,65,0.00,CLR,,0.00,1.0,WeatherDisplay:10.37,2013-08-22 06:46:00,
2013-08-22 01:51:00,80.8,68.4,30.08,SE,136,4.6,4.6,66,0.00,CLR,,0.00,1.0,WeatherDisplay:10.37,2013-08-22 06:51:00,
2013-08-22 01:56:00,80.5,68.1,30.08,ESE,113,3.5,3.5,66,0.00,CLR,,0.00,1.0,WeatherDisplay:10.37,2013-08-22 06:56:00,
2013-08-22 02:01:00,80.4,68.4,30.08,SE,131,3.5,3.5,67,0.00,CLR,,0.00,1.0,WeatherDisplay:10.37,2013-08-22 07:01:00,
2013-08-22 02:06:00,80.2,68.2,30.08,SE,133,3.5,3.5,67,0.00,CLR,,0.00,1.0,WeatherDisplay:10.37,2013-08-22 07:06:00,
2013-08-22 02:11:00,79.9,68.0,30.08,ESE,113,3.5,3.5,67,0.00,CLR,,0.00,1.0,WeatherDisplay:10.37,2013-08-22 07:11:00,
2013-08-22 02:16:00,79.8,67.9,30.08,SE,132,3.5,3.5,67,0.00,CLR,,0.00,1.0,WeatherDisplay:10.37,2013-08-22 07:16:00,
2013-08-22 02:21:00,79.7,67.8,30.08,South,174,6.6,6.6,67,0.00,CLR,,0.00,1.0,WeatherDisplay:10.37,2013-08-22 07:21:00,
2013-08-22 02:26:00,79.8,68.3,30.09,South,183,8.1,8.1,68,0.00,CLR,,0.00,1.0,WeatherDisplay:10.37,2013-08-22 07:26:00,
2013-08-22 02:31:00,79.7,68.6,30.08,SSW,195,11.5,11.5,69,0.00,CLR,,0.00,1.0,WeatherDisplay:10.37,2013-08-22 07:31:00,
2013-08-22 02:36:00,79.6,68.5,30.08,South,182,10.4,10.4,69,0.00,CLR,,0.00,1.0,WeatherDisplay:10.37,2013-08-22 07:36:00,
2013-08-22 02:41:00,79.6,68.5,30.08,South,183,9.2,9.2,69,0.00,CLR,,0.00,1.0,WeatherDisplay:10.37,2013-08-22 07:41:00,
2013-08-22 02:46:00,79.5,68.9,30.08,SSW,213,9.2,9.2,70,0.00,CLR,,0.00,1.0,WeatherDisplay:10.37,2013-08-22 07:46:00,
2013-08-22 02:51:00,79.4,68.8,30.08,South,189,9.2,9.2,70,0.00,CLR,,0.00,1.0,WeatherDisplay:10.37,2013-08-22 07:51:00,
2013-08-22 02:56:00,79.1,68.9,30.08,South,191,8.1,8.1,71,0.00,CLR,,0.00,1.0,WeatherDisplay:10.37,2013-08-22 07:56:00,
2013-08-22 03:01:00,79.0,68.8,30.08,SSW,193,8.1,8.1,71,0.00,CLR,,0.00,2.0,WeatherDisplay:10.37,2013-08-22 08:01:00,
2013-08-22 03:06:00,78.9,68.7,30.08,SSW,205,8.1,8.1,71,0.00,CLR,,0.00,1.0,WeatherDisplay:10.37,2013-08-22 08:06:00,
2013-08-22 03:11:00,78.8,69.0,30.09,South,180,8.1,8.1,72,0.00,CLR,,0.00,1.0,WeatherDisplay:10.37,2013-08-22 08:11:00,
2013-08-22 03:16:00,78.7,69.3,30.09,South,181,5.8,5.8,73,0.00,CLR,,0.00,1.0,WeatherDisplay:10.37,2013-08-22 08:16:00,
2013-08-22 03:21:00,78.5,69.1,30.09,SSW,206,5.8,5.8,73,0.00,CLR,,0.00,1.0,WeatherDisplay:10.37,2013-08-22 08:21:00,
2013-08-22 03:27:00,78.4,69.0,30.09,SSW,201,5.8,5.8,73,0.00,CLR,,0.00,1.0,WeatherDisplay:10.37,2013-08-22 08:27:00,
2013-08-22 03:32:00,78.3,68.9,30.09,SSW,196,6.9,6.9,73,0.00,CLR,,0.00,1.0,WeatherDisplay:10.37,2013-08-22 08:32:00,
2013-08-22 03:37:00,78.1,69.1,30.09,South,190,6.9,6.9,74,0.00,CLR,,0.00,1.0,WeatherDisplay:10.37,2013-08-22 08:37:00,
2013-08-22 03:42:00,78.0,69.4,30.09,South,179,5.8,5.8,75,0.00,CLR,,0.00,1.0,WeatherDisplay:10.37,2013-08-22 08:42:00,
2013-08-22 03:47:00,77.9,69.3,30.09,South,191,5.8,5.8,75,0.00,CLR,,0.00,1.0,WeatherDisplay:10.37,2013-08-22 08:47:00,
2013-08-22 03:52:00,77.8,69.2,30.09,SSW,199,5.8,5.8,75,0.00,CLR,,0.00,1.0,WeatherDisplay:10.37,2013-08-22 08:52:00,
2013-08-22 03:57:00,77.7,69.5,30.09,SSW,198,4.6,4.6,76,0.00,CLR,,0.00,1.0,WeatherDisplay:10.37,2013-08-22 08:57:00,
2013-08-22 04:02:00,77.5,69.3,30.10,SSW,202,4.6,4.6,76,0.00,CLR,,0.00,1.0,WeatherDisplay:10.37,2013-08-22 09:02:00,
2013-08-22 04:07:00,77.4,69.2,30.10,SSW,197,4.6,4.6,76,0.00,CLR,,0.00,1.0,WeatherDisplay:10.37,2013-08-22 09:07:00,
2013-08-22 04:12:00,77.4,69.6,30.10,SSW,197,4.6,4.6,77,0.00,CLR,,0.00,1.0,WeatherDisplay:10.37,2013-08-22 09:12:00,
2013-08-22 04:17:00,77.3,69.5,30.10,SSW,195,4.6,4.6,77,0.00,CLR,,0.00,1.0,WeatherDisplay:10.37,2013-08-22 09:17:00,
2013-08-22 04:22:00,77.3,69.5,30.10,SSW,202,4.6,4.6,77,0.00,CLR,,0.00,1.0,WeatherDisplay:10.37,2013-08-22 09:22:00,
2013-08-22 04:27:00,77.3,69.5,30.10,SSW,198,4.6,4.6,77,0.00,CLR,,0.00,1.0,WeatherDisplay:10.37,2013-08-22 09:27:00,
2013-08-22 04:32:00,77.3,69.9,30.10,SSW,199,5.8,5.8,78,0.00,CLR,,0.00,1.0,WeatherDisplay:10.37,2013-08-22 09:32:00,
2013-08-22 04:37:00,77.3,69.9,30.10,SSW,197,5.8,5.8,78,0.00,CLR,,0.00,1.0,WeatherDisplay:10.37,2013-08-22 09:37:00,
2013-08-22 04:42:00,77.2,69.8,30.10,South,186,4.8,4.8,78,0.00,CLR,,0.00,1.0,WeatherDisplay:10.37,2013-08-22 09:42:00,
2013-08-22 04:47:00,77.2,69.8,30.10,South,177,5.8,5.8,78,0.00,CLR,,0.00,1.0,WeatherDisplay:10.37,2013-08-22 09:47:00,
2013-08-22 04:52:00,77.2,70.2,30.10,SSW,196,6.0,6.0,79,0.00,CLR,,0.00,1.0,WeatherDisplay:10.37,2013-08-22 09:52:00,
2013-08-22 04:57:00,77.1,70.5,30.10,SSW,193,6.0,6.0,80,0.00,CLR,,0.00,1.0,WeatherDisplay:10.37,2013-08-22 09:57:00,
2013-08-22 05:02:00,77.0,70.4,30.10,South,173,4.6,4.6,80,0.00,CLR,,0.00,1.0,WeatherDisplay:10.37,2013-08-22 10:02:00,
2013-08-22 05:07:00,76.9,70.3,30.10,South,188,3.5,3.5,80,0.00,CLR,,0.00,1.0,WeatherDisplay:10.37,2013-08-22 10:07:00,
2013-08-22 05:12:00,76.8,70.2,30.11,South,179,3.5,3.5,80,0.00,CLR,,0.00,1.0,WeatherDisplay:10.37,2013-08-22 10:12:00,
2013-08-22 05:17:00,76.6,70.3,30.11,South,184,4.6,4.6,81,0.00,CLR,,0.00,1.0,WeatherDisplay:10.37,2013-08-22 10:17:00,
2013-08-22 05:22:00,76.5,70.2,30.11,South,185,3.5,3.5,81,0.00,CLR,,0.00,1.0,WeatherDisplay:10.37,2013-08-22 10:22:00,
2013-08-22 05:27:00,76.4,70.5,30.11,South,183,3.6,3.6,82,0.00,CLR,,0.00,1.0,WeatherDisplay:10.37,2013-08-22 10:27:00,
2013-08-22 05:32:00,76.3,70.4,30.11,SSW,194,3.5,3.5,82,0.00,CLR,,0.00,1.0,WeatherDisplay:10.37,2013-08-22 10:32:00,
2013-08-22 05:37:00,76.3,70.8,30.11,SSW,200,3.5,3.5,83,0.00,CLR,,0.00,1.0,WeatherDisplay:10.37,2013-08-22 10:37:00,
2013-08-22 05:42:00,76.2,70.7,30.11,SSW,202,3.5,3.5,83,0.00,CLR,,0.00,1.0,WeatherDisplay:10.37,2013-08-22 10:42:00,
2013-08-22 05:47:00,76.2,70.7,30.11,SSE,159,3.5,3.5,83,0.00,CLR,,0.00,1.0,WeatherDisplay:10.37,2013-08-22 10:47:00,
2013-08-22 07:27:00,74.7,71.2,30.14,South,178,6.9,6.9,89,0.00,OVC,,0.00,127.0,WeatherDisplay:10.37,2013-08-22 12:27:00,
2013-08-22 07:32:00,74.9,71.4,30.14,South,174,6.9,6.9,89,0.00,OVC,,0.00,151.0,WeatherDisplay:10.37,2013-08-22 12:32:00,
2013-08-22 07:37:00,75.1,71.6,30.14,SSE,164,8.1,8.1,89,0.00,OVC,,0.00,171.0,WeatherDisplay:10.37,2013-08-22 12:37:00,
2013-08-22 07:42:00,75.3,72.2,30.14,South,181,10.4,10.4,90,0.00,OVC,,0.00,196.0,WeatherDisplay:10.37,2013-08-22 12:42:00,
2013-08-22 07:47:00,75.5,72.0,30.14,SSE,159,9.2,9.2,89,0.00,OVC,,0.00,219.0,WeatherDisplay:10.37,2013-08-22 12:47:00,
2013-08-22 07:52:00,75.8,72.3,30.14,South,178,8.1,8.1,89,0.00,OVC,,0.00,239.0,WeatherDisplay:10.37,2013-08-22 12:52:00,
2013-08-22 07:57:00,76.2,72.7,30.14,South,183,9.2,9.2,89,0.00,OVC,,0.00,263.0,WeatherDisplay:10.37,2013-08-22 12:57:00,
2013-08-22 08:00:00,76.5,73.0,30.14,SSE,165,10.4,10.4,89,0.00,OVC,,0.00,279.0,WeatherDisplay:10.37,2013-08-22 13:00:00,
2013-08-22 08:05:00,76.8,73.0,30.15,South,178,11.5,11.5,88,0.00,OVC,,0.00,300.0,WeatherDisplay:10.37,2013-08-22 13:05:00,
2013-08-22 08:11:00,77.5,73.7,30.14,SSE,164,10.4,10.4,88,0.00,OVC,,0.00,328.0,WeatherDisplay:10.37,2013-08-22 13:11:00,
2013-08-22 08:16:00,78.0,73.8,30.14,South,184,12.7,12.7,87,0.00,OVC,,0.00,346.0,WeatherDisplay:10.37,2013-08-22 13:16:00,
2013-08-22 08:21:00,78.4,73.9,30.14,South,190,10.4,10.4,86,0.00,OVC,,0.00,365.0,WeatherDisplay:10.37,2013-08-22 13:21:00,
2013-08-22 08:26:00,78.8,74.3,30.15,South,182,8.1,8.1,86,0.00,OVC,,0.00,349.0,WeatherDisplay:10.37,2013-08-22 13:26:00,
2013-08-22 08:32:00,79.4,74.5,30.15,SSW,207,8.1,8.5,85,0.00,OVC,,0.00,324.0,WeatherDisplay:10.37,2013-08-22 13:32:00,
2013-08-22 08:37:00,79.9,74.3,30.15,SSW,203,11.5,11.5,83,0.00,OVC,,0.00,127.0,WeatherDisplay:10.37,2013-08-22 13:37:00,
2013-08-22 08:42:00,80.1,74.1,30.15,SSW,212,8.4,8.4,82,0.00,OVC,,0.00,144.0,WeatherDisplay:10.37,2013-08-22 13:42:00,
2013-08-22 08:47:00,80.1,74.1,30.15,SSW,206,12.7,12.7,82,0.00,OVC,,0.00,130.0,WeatherDisplay:10.37,2013-08-22 13:47:00,
2013-08-22 08:52:00,80.2,74.2,30.15,SW,217,9.2,9.2,82,0.00,OVC,,0.00,134.0,WeatherDisplay:10.37,2013-08-22 13:52:00,
2013-08-22 08:57:00,80.3,73.9,30.15,SSW,201,11.5,11.5,81,0.00,OVC,,0.00,125.0,WeatherDisplay:10.37,2013-08-22 13:57:00,
2013-08-22 09:02:00,80.3,73.9,30.15,SW,223,10.4,10.4,81,0.00,OVC,,0.00,118.0,WeatherDisplay:10.37,2013-08-22 14:02:00,
2013-08-22 09:07:00,80.3,73.9,30.15,SSW,192,9.2,9.2,81,0.00,OVC,,0.00,111.0,WeatherDisplay:10.37,2013-08-22 14:07:00,
2013-08-22 09:12:00,80.3,73.9,30.15,SSW,208,10.4,10.4,81,0.00,OVC,,0.00,113.0,WeatherDisplay:10.37,2013-08-22 14:12:00,
2013-08-22 09:17:00,80.3,73.9,30.15,SSW,205,8.1,8.1,81,0.00,OVC,,0.00,191.0,WeatherDisplay:10.37,2013-08-22 14:17:00,
2013-08-22 09:22:00,80.5,74.1,30.15,SSW,212,6.9,6.9,81,0.00,OVC,,0.00,242.0,WeatherDisplay:10.37,2013-08-22 14:22:00,
2013-08-22 09:27:00,80.7,74.7,30.15,South,174,6.6,6.6,82,0.00,OVC,,0.00,568.0,WeatherDisplay:10.37,2013-08-22 14:27:00,
2013-08-22 09:32:00,81.2,74.8,30.15,SSE,164,12.7,12.7,81,0.00,OVC,,0.00,724.0,WeatherDisplay:10.37,2013-08-22 14:32:00,
2013-08-22 09:37:00,82.0,75.2,30.15,SSW,204,9.2,9.2,80,0.00,OVC,,0.00,481.0,WeatherDisplay:10.37,2013-08-22 14:37:00,
2013-08-22 09:42:00,82.5,74.9,30.15,South,181,8.1,8.1,78,0.00,OVC,,0.00,694.0,WeatherDisplay:10.37,2013-08-22 14:42:00,
2013-08-22 09:47:00,83.0,75.0,30.15,South,189,6.3,6.3,77,0.00,OVC,,0.00,368.0,WeatherDisplay:10.37,2013-08-22 14:47:00,
2013-08-22 09:52:00,83.6,75.2,30.15,SSW,195,9.3,9.3,76,0.00,OVC,,0.00,238.0,WeatherDisplay:10.37,2013-08-22 14:52:00,
2013-08-22 09:57:00,83.9,75.1,30.15,SSW,209,8.1,8.1,75,0.00,OVC,,0.00,731.0,WeatherDisplay:10.37,2013-08-22 14:57:00,
2013-08-22 10:02:00,84.3,75.1,30.15,SSW,205,10.4,10.4,74,0.00,OVC,,0.00,690.0,WeatherDisplay:10.37,2013-08-22 15:02:00,
2013-08-22 10:07:00,84.6,75.0,30.15,SSW,195,9.2,9.2,73,0.00,OVC,,0.00,686.0,WeatherDisplay:10.37,2013-08-22 15:07:00,
2013-08-22 10:12:00,85.1,75.1,30.15,SSW,208,9.0,9.0,72,0.00,OVC,,0.00,686.0,WeatherDisplay:10.37,2013-08-22 15:12:00,
2013-08-22 10:17:00,85.7,75.2,30.15,WSW,246,9.2,9.2,71,0.00,OVC,,0.00,699.0,WeatherDisplay:10.37,2013-08-22 15:17:00,
2013-08-22 10:22:00,86.0,75.1,30.15,SSW,194,9.9,9.9,70,0.00,OVC,,0.00,711.0,WeatherDisplay:10.37,2013-08-22 15:22:00,
2013-08-22 10:27:00,86.7,74.9,30.15,SSW,212,8.1,8.1,68,0.00,OVC,,0.00,726.0,WeatherDisplay:10.37,2013-08-22 15:27:00,
2013-08-22 10:32:00,87.1,74.8,30.15,SW,214,6.9,6.9,67,0.00,OVC,,0.00,737.0,WeatherDisplay:10.37,2013-08-22 15:32:00,
2013-08-22 10:37:00,87.5,74.7,30.15,SSW,193,4.6,4.6,66,0.00,OVC,,0.00,747.0,WeatherDisplay:10.37,2013-08-22 15:37:00,
2013-08-22 10:42:00,87.9,74.7,30.15,South,174,5.8,5.8,65,0.00,OVC,,0.00,759.0,WeatherDisplay:10.37,2013-08-22 15:42:00,
2013-08-22 10:47:00,88.6,74.9,30.15,SSE,164,4.2,4.2,64,0.00,OVC,,0.00,766.0,WeatherDisplay:10.37,2013-08-22 15:47:00,
2013-08-22 10:52:00,88.8,73.6,30.15,SSW,201,8.1,8.1,61,0.00,OVC,,0.00,778.0,WeatherDisplay:10.37,2013-08-22 15:52:00,
2013-08-22 10:57:00,89.0,73.8,30.15,SW,230,5.8,5.8,61,0.00,OVC,,0.00,784.0,WeatherDisplay:10.37,2013-08-22 15:57:00,
2013-08-22 11:02:00,89.2,73.0,30.15,WSW,246,10.4,10.4,59,0.00,OVC,,0.00,794.0,WeatherDisplay:10.37,2013-08-22 16:02:00,
2013-08-22 11:07:00,89.3,73.1,30.15,SW,230,8.1,8.1,59,0.00,OVC,,0.00,802.0,WeatherDisplay:10.37,2013-08-22 16:07:00,
2013-08-22 11:12:00,89.5,72.8,30.15,WSW,248,10.4,10.4,58,0.00,OVC,,0.00,810.0,WeatherDisplay:10.37,2013-08-22 16:12:00,
2013-08-22 11:17:00,90.0,73.2,30.14,SW,222,6.9,6.9,58,0.00,OVC,,0.00,817.0,WeatherDisplay:10.37,2013-08-22 16:17:00,
2013-08-22 11:22:00,90.8,73.5,30.14,SSW,198,9.2,9.2,57,0.00,OVC,,0.00,825.0,WeatherDisplay:10.37,2013-08-22 16:22:00,
2013-08-22 11:27:00,91.3,73.4,30.14,SSW,193,6.9,6.9,56,0.00,OVC,,0.00,834.0,WeatherDisplay:10.37,2013-08-22 16:27:00,
2013-08-22 11:32:00,91.8,73.3,30.14,West,274,10.4,10.4,55,0.00,OVC,,0.00,840.0,WeatherDisplay:10.37,2013-08-22 16:32:00,
2013-08-22 11:37:00,91.3,72.3,30.14,West,262,9.2,9.2,54,0.00,OVC,,0.00,846.0,WeatherDisplay:10.37,2013-08-22 16:37:00,
2013-08-22 11:42:00,91.8,73.9,30.14,West,271,10.4,10.4,56,0.00,OVC,,0.00,854.0,WeatherDisplay:10.37,2013-08-22 16:42:00,
2013-08-22 11:47:00,91.2,72.8,30.13,West,270,11.7,11.7,55,0.00,OVC,,0.00,878.0,WeatherDisplay:10.37,2013-08-22 16:47:00,
2013-08-22 11:52:00,91.5,72.5,30.13,WSW,239,10.4,10.4,54,0.00,OVC,,0.00,888.0,WeatherDisplay:10.37,2013-08-22 16:52:00,
2013-08-22 11:57:00,91.5,73.1,30.13,WSW,249,11.5,11.5,55,0.00,OVC,,0.00,886.0,WeatherDisplay:10.37,2013-08-22 16:57:00,
2013-08-22 12:02:00,91.6,72.6,30.13,WSW,248,6.9,6.9,54,0.00,OVC,,0.00,911.0,WeatherDisplay:10.37,2013-08-22 17:02:00,
2013-08-22 12:07:00,92.4,72.8,30.13,West,271,7.8,7.8,53,0.00,OVC,,0.00,925.0,WeatherDisplay:10.37,2013-08-22 17:07:00,
2013-08-22 12:12:00,92.2,72.0,30.13,West,271,10.4,10.4,52,0.00,OVC,,0.00,936.0,WeatherDisplay:10.37,2013-08-22 17:12:00,
2013-08-22 12:17:00,92.8,72.6,30.12,West,274,2.3,2.4,52,0.00,OVC,,0.00,199.0,WeatherDisplay:10.37,2013-08-22 17:17:00,
2013-08-22 12:22:00,93.1,72.9,30.12,NW,324,2.3,2.3,52,0.00,OVC,,0.00,986.0,WeatherDisplay:10.37,2013-08-22 17:22:00,
2013-08-22 12:27:00,93.3,73.0,30.12,WSW,243,5.8,5.8,52,0.00,OVC,,0.00,209.0,WeatherDisplay:10.37,2013-08-22 17:27:00,
2013-08-22 12:32:00,92.9,73.2,30.12,WSW,246,4.6,4.6,53,0.00,OVC,,0.00,967.0,WeatherDisplay:10.37,2013-08-22 17:32:00,
2013-08-22 12:37:00,92.6,72.4,30.12,WSW,248,11.5,11.5,52,0.00,OVC,,0.00,981.0,WeatherDisplay:10.37,2013-08-22 17:37:00,
2013-08-22 12:42:00,92.5,72.3,30.11,West,266,4.6,4.6,52,0.00,OVC,,0.00,967.0,WeatherDisplay:10.37,2013-08-22 17:42:00,
2013-08-22 12:47:00,93.6,72.7,30.11,WSW,256,10.4,10.4,51,0.00,OVC,,0.00,928.0,WeatherDisplay:10.37,2013-08-22 17:47:00,
2013-08-22 12:52:00,95.1,73.5,30.11,South,186,6.9,6.9,50,0.00,OVC,,0.00,964.0,WeatherDisplay:10.37,2013-08-22 17:52:00,
2013-08-22 12:57:00,96.7,73.8,30.11,South,173,11.5,11.5,48,0.00,CLR,,0.00,980.0,WeatherDisplay:10.37,2013-08-22 17:57:00,
2013-08-22 13:02:00,96.5,72.3,30.11,SE,133,9.2,9.2,46,0.00,CLR,,0.00,985.0,WeatherDisplay:10.37,2013-08-22 18:02:00,
2013-08-22 13:07:00,95.7,72.9,30.10,SSW,192,11.4,11.4,48,0.00,CLR,,0.00,974.0,WeatherDisplay:10.37,2013-08-22 18:07:00,
2013-08-22 13:12:00,96.2,72.7,30.10,SSW,208,10.4,10.4,47,0.00,CLR,,0.00,977.0,WeatherDisplay:10.37,2013-08-22 18:12:00,
2013-08-22 13:17:00,96.0,73.1,30.10,SW,224,10.4,10.4,48,0.00,CLR,,0.00,979.0,WeatherDisplay:10.37,2013-08-22 18:17:00,
2013-08-22 13:22:00,94.2,71.5,30.10,SSW,199,6.9,6.9,48,0.00,CLR,,0.00,953.0,WeatherDisplay:10.37,2013-08-22 18:22:00,
2013-08-22 13:27:00,93.9,71.2,30.10,South,190,3.5,3.5,48,0.00,CLR,,0.00,939.0,WeatherDisplay:10.37,2013-08-22 18:27:00,
2013-08-22 13:32:00,95.0,72.2,30.10,SW,225,5.8,5.8,48,0.00,CLR,,0.00,940.0,WeatherDisplay:10.37,2013-08-22 18:32:00,
2013-08-22 13:37:00,95.0,71.0,30.09,East,88,4.6,4.6,46,0.00,CLR,,0.00,946.0,WeatherDisplay:10.37,2013-08-22 18:37:00,
2013-08-22 13:42:00,96.9,72.0,30.09,SW,230,8.1,8.1,45,0.00,CLR,,0.00,951.0,WeatherDisplay:10.37,2013-08-22 18:42:00,
2013-08-22 13:47:00,96.0,70.6,30.09,WNW,291,3.5,4.0,44,0.00,CLR,,0.00,953.0,WeatherDisplay:10.37,2013-08-22 18:47:00,
2013-08-22 13:52:00,96.9,72.7,30.09,SSW,199,8.4,8.4,46,0.00,CLR,,0.00,952.0,WeatherDisplay:10.37,2013-08-22 18:52:00,
2013-08-22 13:57:00,96.8,73.2,30.08,South,185,10.4,10.4,47,0.00,CLR,,0.00,941.0,WeatherDisplay:10.37,2013-08-22 18:57:00,
2013-08-22 14:02:00,95.9,71.8,30.08,WSW,239,6.9,6.9,46,0.00,CLR,,0.00,942.0,WeatherDisplay:10.37,2013-08-22 19:02:00,
2013-08-22 14:08:00,96.0,71.9,30.08,SSW,208,8.1,8.1,46,0.00,CLR,,0.00,940.0,WeatherDisplay:10.37,2013-08-22 19:08:00,
2013-08-22 14:13:00,96.6,71.8,30.08,South,169,6.9,6.9,45,0.00,CLR,,0.00,928.0,WeatherDisplay:10.37,2013-08-22 19:13:00,
2013-08-22 14:18:00,97.6,72.0,30.08,NW,319,2.3,2.3,44,0.00,CLR,,0.00,920.0,WeatherDisplay:10.37,2013-08-22 19:18:00,
2013-08-22 14:23:00,97.4,71.8,30.08,SSW,209,6.9,6.9,44,0.00,CLR,,0.00,917.0,WeatherDisplay:10.37,2013-08-22 19:23:00,
2013-08-22 14:28:00,97.8,72.2,30.07,SW,231,9.2,9.2,44,0.00,CLR,,0.00,897.0,WeatherDisplay:10.37,2013-08-22 19:28:00,
2013-08-22 14:33:00,96.8,71.3,30.07,ESE,123,5.8,5.8,44,0.00,CLR,,0.00,895.0,WeatherDisplay:10.37,2013-08-22 19:33:00,
2013-08-22 14:38:00,98.3,72.0,30.07,SSW,205,9.2,9.2,43,0.00,CLR,,0.00,898.0,WeatherDisplay:10.37,2013-08-22 19:38:00,
2013-08-22 14:43:00,99.4,72.9,30.07,SSW,202,9.6,9.6,43,0.00,CLR,,0.00,914.0,WeatherDisplay:10.37,2013-08-22 19:43:00,
2013-08-22 14:48:00,97.9,70.9,30.07,South,188,10.4,10.4,42,0.00,CLR,,0.00,892.0,WeatherDisplay:10.37,2013-08-22 19:48:00,
2013-08-22 14:53:00,97.6,72.0,30.06,South,183,8.1,8.1,44,0.00,CLR,,0.00,876.0,WeatherDisplay:10.37,2013-08-22 19:53:00,
2013-08-22 14:58:00,98.2,71.2,30.06,West,274,6.9,6.9,42,0.00,CLR,,0.00,868.0,WeatherDisplay:10.37,2013-08-22 19:58:00,
2013-08-22 15:03:00,97.9,70.9,30.06,West,262,3.5,3.5,42,0.00,CLR,,0.00,840.0,WeatherDisplay:10.37,2013-08-22 20:03:00,
2013-08-22 15:08:00,99.1,71.3,30.06,South,175,9.2,9.2,41,0.00,CLR,,0.00,861.0,WeatherDisplay:10.37,2013-08-22 20:08:00,
2013-08-22 15:13:00,98.5,71.4,30.05,WSW,257,9.2,9.2,42,0.00,CLR,,0.00,835.0,WeatherDisplay:10.37,2013-08-22 20:13:00,
2013-08-22 15:18:00,99.1,72.7,30.05,SW,226,8.1,8.1,43,0.00,CLR,,0.00,819.0,WeatherDisplay:10.37,2013-08-22 20:18:00,
2013-08-22 15:23:00,98.9,71.1,30.05,SSE,159,8.1,8.1,41,0.00,CLR,,0.00,824.0,WeatherDisplay:10.37,2013-08-22 20:23:00,
2013-08-22 15:28:00,98.5,70.7,30.05,East,81,3.5,3.5,41,0.00,CLR,,0.00,830.0,WeatherDisplay:10.37,2013-08-22 20:28:00,
2013-08-22 15:33:00,98.5,70.0,30.04,SSW,195,4.6,4.6,40,0.00,SCT,,0.00,298.0,WeatherDisplay:10.37,2013-08-22 20:33:00,
2013-08-22 15:38:00,98.0,69.6,30.04,WNW,288,5.8,5.8,40,0.00,OVC,,0.00,217.0,WeatherDisplay:10.37,2013-08-22 20:38:00,
2013-08-22 15:43:00,97.7,69.3,30.03,NW,322,4.6,4.6,40,0.00,CLR,,0.00,786.0,WeatherDisplay:10.37,2013-08-22 20:43:00,
2013-08-22 15:48:00,98.4,71.4,30.03,WSW,237,8.1,8.1,42,0.00,CLR,,0.00,776.0,WeatherDisplay:10.37,2013-08-22 20:48:00,
2013-08-22 15:53:00,99.9,71.3,30.03,South,178,9.2,9.2,40,0.00,CLR,,0.00,795.0,WeatherDisplay:10.37,2013-08-22 20:53:00,
2013-08-22 15:58:00,98.8,69.5,30.03,SSE,147,4.6,4.6,39,0.00,CLR,,0.00,781.0,WeatherDisplay:10.37,2013-08-22 20:58:00,
2013-08-22 16:03:00,99.2,71.4,30.03,SE,137,5.8,5.8,41,0.00,CLR,,0.00,777.0,WeatherDisplay:10.37,2013-08-22 21:03:00,
2013-08-22 16:08:00,98.9,71.1,30.03,SSE,164,8.1,8.1,41,0.00,CLR,,0.00,738.0,WeatherDisplay:10.37,2013-08-22 21:08:00,
2013-08-22 16:13:00,98.9,71.1,30.02,ENE,62,5.8,5.8,41,0.00,CLR,,0.00,743.0,WeatherDisplay:10.37,2013-08-22 21:13:00,
2013-08-22 16:18:00,99.2,72.8,30.02,SSE,155,8.4,8.4,43,0.00,CLR,,0.00,714.0,WeatherDisplay:10.37,2013-08-22 21:18:00,
2013-08-22 16:23:00,100.5,72.5,30.02,SSW,210,9.2,9.2,41,0.00,CLR,,0.00,692.0,WeatherDisplay:10.37,2013-08-22 21:23:00,
2013-08-22 16:28:00,100.1,71.4,29.94,WSW,253,13.8,13.8,40,0.00,FEW,,0.00,696.0,WeatherDisplay:10.37,2013-08-22 21:28:00,
2013-08-22 16:33:00,99.1,70.5,30.01,West,275,13.8,13.8,40,0.00,FEW,,0.00,669.0,WeatherDisplay:10.37,2013-08-22 21:33:00,
2013-08-22 16:38:00,98.1,69.7,30.01,West,279,5.8,5.8,40,0.00,FEW,,0.00,633.0,WeatherDisplay:10.37,2013-08-22 21:38:00,
2013-08-22 16:43:00,99.1,70.5,29.94,SSW,203,8.1,8.1,40,0.00,FEW,,0.00,630.0,WeatherDisplay:10.37,2013-08-22 21:43:00,
2013-08-22 16:48:00,98.8,69.5,29.93,WSW,250,10.4,10.4,39,0.00,SCT,,0.00,602.0,WeatherDisplay:10.37,2013-08-22 21:48:00,
2013-08-22 16:53:00,98.7,69.4,30.00,West,275,10.4,10.4,39,0.00,SCT,,0.00,589.0,WeatherDisplay:10.37,2013-08-22 21:53:00,
2013-08-22 16:58:00,98.6,69.4,30.00,West,260,9.2,9.2,39,0.00,SCT,,0.00,575.0,WeatherDisplay:10.37,2013-08-22 21:58:00,
2013-08-22 17:03:00,98.8,70.3,29.93,WSW,255,8.1,8.1,40,0.00,SCT,,0.00,564.0,WeatherDisplay:10.37,2013-08-22 22:03:00,
2013-08-22 17:08:00,98.2,69.0,29.93,WNW,294,6.9,6.9,39,0.00,SCT,,0.00,553.0,WeatherDisplay:10.37,2013-08-22 22:08:00,
2013-08-22 17:13:00,99.4,70.1,29.93,WNW,295,9.2,9.2,39,0.00,SCT,,0.00,540.0,WeatherDisplay:10.37,2013-08-22 22:13:00,
2013-08-22 17:18:00,100.5,71.0,29.99,NW,314,6.9,6.9,39,0.00,SCT,,0.00,548.0,WeatherDisplay:10.37,2013-08-22 22:18:00,
2013-08-22 17:23:00,100.9,70.6,30.00,WNW,294,4.6,4.6,38,0.00,BKN,,0.00,512.0,WeatherDisplay:10.37,2013-08-22 22:23:00,
2013-08-22 17:28:00,100.0,70.6,30.00,South,182,5.8,5.8,39,0.00,BKN,,0.00,502.0,WeatherDisplay:10.37,2013-08-22 22:28:00,
2013-08-22 17:33:00,99.8,70.4,30.00,SW,215,6.9,6.9,39,0.00,BKN,,0.00,464.0,WeatherDisplay:10.37,2013-08-22 22:33:00,
2013-08-22 17:38:00,99.3,70.0,29.92,SW,218,5.8,5.8,39,0.00,BKN,,0.00,448.0,WeatherDisplay:10.37,2013-08-22 22:38:00,
2013-08-22 17:43:00,99.2,69.9,29.92,SSE,155,5.4,5.4,39,0.00,BKN,,0.00,430.0,WeatherDisplay:10.37,2013-08-22 22:43:00,
2013-08-22 17:48:00,99.1,69.0,29.92,SSE,149,5.8,5.8,38,0.00,BKN,,0.00,414.0,WeatherDisplay:10.37,2013-08-22 22:48:00,
2013-08-22 17:53:00,99.8,69.7,29.93,WNW,297,2.4,2.4,38,0.00,BKN,,0.00,400.0,WeatherDisplay:10.37,2013-08-22 22:53:00,
2013-08-22 17:58:00,100.3,70.1,29.93,NNW,333,3.5,3.5,38,0.00,OVC,,0.00,386.0,WeatherDisplay:10.37,2013-08-22 22:58:00,
2013-08-22 18:03:00,100.4,70.2,29.93,SW,222,2.7,2.7,38,0.00,OVC,,0.00,368.0,WeatherDisplay:10.37,2013-08-22 23:03:00,
2013-08-22 18:08:00,99.9,69.7,29.94,SW,233,5.8,5.8,38,0.00,OVC,,0.00,353.0,WeatherDisplay:10.37,2013-08-22 23:08:00,
2013-08-22 18:13:00,99.3,69.2,29.95,WNW,286,6.9,6.9,38,0.00,OVC,,0.00,339.0,WeatherDisplay:10.37,2013-08-22 23:13:00,
2013-08-22 18:18:00,98.7,69.4,29.94,WSW,238,4.6,4.6,39,0.00,OVC,,0.00,325.0,WeatherDisplay:10.37,2013-08-22 23:18:00,
2013-08-22 18:23:00,98.9,69.6,29.94,WSW,256,6.9,6.9,39,0.00,OVC,,0.00,312.0,WeatherDisplay:10.37,2013-08-22 23:23:00,
2013-08-22 18:28:00,99.0,69.7,29.94,West,265,3.5,3.5,39,0.00,OVC,,0.00,297.0,WeatherDisplay:10.37,2013-08-22 23:28:00,
2013-08-22 18:33:00,99.1,69.8,29.98,South,176,6.9,6.9,39,0.00,OVC,,0.00,284.0,WeatherDisplay:10.37,2013-08-22 23:33:00,
2013-08-22 18:38:00,99.0,68.2,29.91,SW,216,3.5,3.5,37,0.00,OVC,,0.00,269.0,WeatherDisplay:10.37,2013-08-22 23:38:00,
2013-08-22 18:43:00,99.0,69.0,29.93,WSW,244,3.5,3.5,38,0.00,OVC,,0.00,251.0,WeatherDisplay:10.37,2013-08-22 23:43:00,
2013-08-22 18:48:00,99.1,68.3,29.92,WNW,290,2.3,2.3,37,0.00,OVC,,0.00,237.0,WeatherDisplay:10.37,2013-08-22 23:48:00,
2013-08-22 18:53:00,99.3,68.4,29.92,SW,230,3.5,3.5,37,0.00,OVC,,0.00,221.0,WeatherDisplay:10.37,2013-08-22 23:53:00,
2013-08-22 18:58:00,99.2,68.4,29.99,SSW,195,3.0,3.0,37,0.00,OVC,,0.00,207.0,WeatherDisplay:10.37,2013-08-22 23:58:00,
2013-08-22 19:03:00,99.2,68.4,29.99,South,185,2.1,2.1,37,0.00,OVC,,0.00,192.0,WeatherDisplay:10.37,2013-08-23 00:03:00,
2013-08-22 19:08:00,99.2,68.4,29.99,SSE,166,1.2,1.2,37,0.00,OVC,,0.00,177.0,WeatherDisplay:10.37,2013-08-23 00:08:00,
2013-08-22 19:13:00,98.9,68.1,29.99,SSE,166,1.2,1.2,37,0.00,OVC,,0.00,161.0,WeatherDisplay:10.37,2013-08-23 00:13:00,
2013-08-22 19:18:00,98.8,68.0,29.99,SSE,166,1.5,1.5,37,0.00,OVC,,0.00,148.0,WeatherDisplay:10.37,2013-08-23 00:18:00,
2013-08-22 19:23:00,98.8,68.8,29.98,SSE,166,2.3,2.3,38,0.00,OVC,,0.00,134.0,WeatherDisplay:10.37,2013-08-23 00:23:00,
2013-08-22 19:28:00,98.6,68.6,29.99,SSE,166,1.5,1.5,38,0.00,OVC,,0.00,118.0,WeatherDisplay:10.37,2013-08-23 00:28:00,
2013-08-22 19:33:00,98.3,69.1,29.99,SSE,166,1.2,1.4,39,0.00,OVC,,0.00,101.0,WeatherDisplay:10.37,2013-08-23 00:33:00,
2013-08-22 19:38:00,98.2,69.0,29.99,SSE,166,1.2,0.0,39,0.00,OVC,,0.00,80.0,WeatherDisplay:10.37,2013-08-23 00:38:00,
2013-08-22 19:43:00,98.1,69.7,29.99,SE,127,12.3,12.3,40,0.00,OVC,,0.00,70.0,WeatherDisplay:10.37,2013-08-23 00:43:00,
2013-08-22 19:48:00,95.0,70.3,30.00,SE,130,15.0,15.0,45,0.00,OVC,,0.00,65.0,WeatherDisplay:10.37,2013-08-23 00:48:00,
2013-08-22 19:54:00,93.1,71.1,30.00,SSE,154,21.0,21.0,49,0.00,OVC,,0.00,46.0,WeatherDisplay:10.37,2013-08-23 00:54:00,
2013-08-22 19:59:00,91.0,70.4,30.00,ESE,108,19.6,19.6,51,0.00,OVC,,0.00,32.0,WeatherDisplay:10.37,2013-08-23 00:59:00,
2013-08-22 20:04:00,89.9,70.5,30.00,SE,139,16.1,16.1,53,0.00,OVC,,0.00,17.0,WeatherDisplay:10.37,2013-08-23 01:04:00,
2013-08-22 20:09:00,89.6,71.3,30.01,South,172,17.3,17.3,55,0.00,OVC,,0.00,10.0,WeatherDisplay:10.37,2013-08-23 01:09:00,
2013-08-22 20:14:00,89.2,70.9,30.01,SE,129,16.1,16.1,55,0.00,OVC,,0.00,4.0,WeatherDisplay:10.37,2013-08-23 01:14:00,
2013-08-22 20:19:00,88.9,71.2,30.01,SE,129,11.5,11.5,56,0.00,OVC,,0.00,2.0,WeatherDisplay:10.37,2013-08-23 01:19:00,
2013-08-22 20:24:00,88.8,71.1,30.01,SSE,155,11.5,11.5,56,0.00,OVC,,0.00,2.0,WeatherDisplay:10.37,2013-08-23 01:24:00,
2013-08-22 20:29:00,88.6,70.9,30.01,SSE,156,12.7,12.7,56,0.00,OVC,,0.00,1.0,WeatherDisplay:10.37,2013-08-23 01:29:00,
2013-08-22 20:34:00,88.4,70.7,30.01,SE,146,10.4,10.4,56,0.00,CLR,,0.00,0.0,WeatherDisplay:10.37,2013-08-23 01:34:00,
2013-08-22 20:39:00,88.1,69.4,30.01,SSE,158,13.8,13.8,54,0.00,CLR,,0.00,1.0,WeatherDisplay:10.37,2013-08-23 01:39:00,
2013-08-22 20:44:00,88.0,69.3,30.02,SSE,156,11.5,11.5,54,0.00,CLR,,0.00,1.0,WeatherDisplay:10.37,2013-08-23 01:44:00,
2013-08-22 20:49:00,87.9,69.2,30.02,SE,144,17.3,17.3,54,0.00,CLR,,0.00,1.0,WeatherDisplay:10.37,2013-08-23 01:49:00,
2013-08-22 20:54:00,87.6,69.4,30.02,SE,144,15.0,15.0,55,0.00,CLR,,0.00,1.0,WeatherDisplay:10.37,2013-08-23 01:54:00,
2013-08-22 20:59:00,87.3,69.7,30.02,SE,145,12.7,12.7,56,0.00,CLR,,0.00,1.0,WeatherDisplay:10.37,2013-08-23 01:59:00,
2013-08-22 21:04:00,87.1,69.5,30.02,SSE,155,12.7,12.7,56,0.00,CLR,,0.00,1.0,WeatherDisplay:10.37,2013-08-23 02:04:00,
2013-08-22 21:09:00,87.0,69.9,30.03,SSE,165,6.0,6.0,57,0.00,CLR,,0.00,1.0,WeatherDisplay:10.37,2013-08-23 02:09:00,
2013-08-22 21:14:00,87.0,69.9,30.03,SSE,157,8.1,8.1,57,0.00,CLR,,0.00,1.0,WeatherDisplay:10.37,2013-08-23 02:14:00,
2013-08-22 21:19:00,87.0,69.9,30.03,South,176,9.2,9.2,57,0.00,CLR,,0.00,1.0,WeatherDisplay:10.37,2013-08-23 02:19:00,
2013-08-22 21:24:00,87.0,70.4,30.03,SSE,149,9.2,9.2,58,0.00,CLR,,0.00,1.0,WeatherDisplay:10.37,2013-08-23 02:24:00,
2013-08-22 21:29:00,87.0,70.4,30.03,SE,146,9.6,9.6,58,0.00,CLR,,0.00,1.0,WeatherDisplay:10.37,2013-08-23 02:29:00,
2013-08-22 21:34:00,86.9,70.8,30.03,SSE,155,8.1,8.1,59,0.00,CLR,,0.00,1.0,WeatherDisplay:10.37,2013-08-23 02:34:00,
2013-08-22 21:39:00,86.9,70.8,30.04,SE,146,11.5,11.5,59,0.00,CLR,,0.00,1.0,WeatherDisplay:10.37,2013-08-23 02:39:00,
2013-08-22 21:44:00,86.9,71.3,30.04,SSE,147,11.5,11.5,60,0.00,CLR,,0.00,1.0,WeatherDisplay:10.37,2013-08-23 02:44:00,
2013-08-22 21:49:00,86.9,71.3,30.04,South,169,9.2,9.2,60,0.00,CLR,,0.00,1.0,WeatherDisplay:10.37,2013-08-23 02:49:00,
2013-08-22 21:54:00,86.9,70.8,30.04,SSE,151,10.4,10.4,59,0.00,CLR,,0.00,1.0,WeatherDisplay:10.37,2013-08-23 02:54:00,
2013-08-22 21:59:00,86.8,71.2,30.05,SSE,160,9.2,9.2,60,0.00,CLR,,0.00,1.0,WeatherDisplay:10.37,2013-08-23 02:59:00,
2013-08-22 22:04:00,86.7,71.2,30.05,South,179,5.1,5.1,60,0.00,CLR,,0.00,1.0,WeatherDisplay:10.37,2013-08-23 03:04:00,
2013-08-22 22:09:00,86.6,71.5,30.05,South,184,6.9,6.9,61,0.00,CLR,,0.00,1.0,WeatherDisplay:10.37,2013-08-23 03:09:00,
2013-08-22 22:14:00,86.5,71.5,30.05,SE,141,6.9,6.9,61,0.00,CLR,,0.00,1.0,WeatherDisplay:10.37,2013-08-23 03:14:00,
2013-08-22 22:19:00,86.4,71.8,30.05,SSE,155,9.2,9.2,62,0.00,CLR,,0.00,1.0,WeatherDisplay:10.37,2013-08-23 03:19:00,
2013-08-22 22:24:00,86.3,72.2,30.05,SSE,155,10.4,10.4,63,0.00,CLR,,0.00,1.0,WeatherDisplay:10.37,2013-08-23 03:24:00,
2013-08-22 22:29:00,86.4,72.8,30.05,SSE,147,9.2,9.2,64,0.00,CLR,,0.00,1.0,WeatherDisplay:10.37,2013-08-23 03:29:00,
2013-08-22 22:34:00,86.3,72.7,30.06,SSE,149,8.1,8.1,64,0.00,CLR,,0.00,1.0,WeatherDisplay:10.37,2013-08-23 03:34:00,
2013-08-22 22:39:00,86.2,72.1,30.05,SSE,152,8.7,8.7,63,0.00,CLR,,0.00,1.0,WeatherDisplay:10.37,2013-08-23 03:39:00,
2013-08-22 22:44:00,86.2,71.6,30.06,SSE,158,10.4,10.4,62,0.00,CLR,,0.00,1.0,WeatherDisplay:10.37,2013-08-23 03:44:00,
2013-08-22 22:49:00,86.2,71.6,30.06,SSE,153,10.4,10.4,62,0.00,CLR,,0.00,1.0,WeatherDisplay:10.37,2013-08-23 03:49:00,
2013-08-22 22:54:00,86.3,71.7,30.06,South,178,9.6,9.6,62,0.00,CLR,,0.00,1.0,WeatherDisplay:10.37,2013-08-23 03:54:00,
2013-08-22 22:59:00,86.3,71.7,30.06,SE,138,8.1,8.1,62,0.00,CLR,,0.00,1.0,WeatherDisplay:10.37,2013-08-23 03:59:00,
2013-08-22 23:01:00,86.3,71.7,30.06,South,186,9.2,9.2,62,0.00,CLR,,0.00,1.0,WeatherDisplay:10.37,2013-08-23 04:01:00,
2013-08-22 23:06:00,86.3,71.7,30.06,SE,136,11.5,11.5,62,0.00,CLR,,0.00,1.0,WeatherDisplay:10.37,2013-08-23 04:06:00,
2013-08-22 23:11:00,86.2,72.1,30.06,SSE,160,10.4,10.4,63,0.00,CLR,,0.00,1.0,WeatherDisplay:10.37,2013-08-23 04:11:00,
2013-08-22 23:16:00,86.2,72.6,30.06,SSE,163,11.5,11.5,64,0.00,CLR,,0.00,1.0,WeatherDisplay:10.37,2013-08-23 04:16:00,
2013-08-22 23:21:00,86.0,72.4,30.06,SSE,159,10.4,10.4,64,0.00,CLR,,0.00,1.0,WeatherDisplay:10.37,2013-08-23 04:21:00,
2013-08-22 23:26:00,85.8,72.2,30.06,SE,143,9.9,9.9,64,0.00,CLR,,0.00,1.0,WeatherDisplay:10.37,2013-08-23 04:26:00,
2013-08-22 23:31:00,85.7,72.6,30.06,SSE,155,8.1,8.1,65,0.00,CLR,,0.00,1.0,WeatherDisplay:10.37,2013-08-23 04:31:00,
2013-08-22 23:36:00,85.4,72.7,30.06,SSE,157,5.8,5.8,66,0.00,CLR,,0.00,1.0,WeatherDisplay:10.37,2013-08-23 04:36:00,
2013-08-22 23:41:00,85.3,72.6,30.06,SSE,164,4.6,4.8,66,0.00,CLR,,0.00,1.0,WeatherDisplay:10.37,2013-08-23 04:41:00,
2013-08-22 23:46:00,85.0,72.4,30.06,SSE,152,5.8,5.8,66,0.00,CLR,,0.00,1.0,WeatherDisplay:10.37,2013-08-23 04:46:00,
2013-08-22 23:51:00,84.9,72.3,30.06,SSE,159,5.8,5.8,66,0.00,CLR,,0.00,1.0,WeatherDisplay:10.37,2013-08-23 04:51:00,
2013-08-22 23:56:00,84.8,72.6,30.06,South,188,5.8,5.8,67,0.00,CLR,,0.00,1.0,WeatherDisplay:10.37,2013-08-23 04:56:00,